Koloa, Hawaii
Current Conditions -  °F | °C
As of 10:53 PM on Sunday 23 Nov 2014 (Local Time) from PHLI Reporting Station
Clear Clear  
Wind Chill: 72°   Ceiling: Unl
Heat Index: 72°   Visibility: 10mi
Dew Point: 64°   Wind: 3mph
Humidity: 76%   Direction: 240°WSW
Pressure: 29.91"   Gusts: NA
Location:  21.9°N, 159.45°W
Report Text: PHLI 240853Z AUTO 24003KT 10SM CLR 22/18 A2991 RMK AO2 SLP127 T02220178 58004 TSNO $
Loading
Personal Weather Stations






























Interactive Weather Map New forecast layout! Learn more

10-Day Weather Forecast

Advertisements
Track Severe Weather on mobile